Time;durP1;ratioP1;P1;durP2;ratioP2;P2;SDS_P1;SDS_P2;PMS_P1;PMS_P2;Temp;Humidity;BMP_temperature;BMP_pressure;BME280_temperature;BME280_humidity;BME280_pressure;Samples;Min_cycle;Max_cycle;Signal;HPM_P1;HPM_P2
2023/04/05 00:01:54;;;;;;;17.13;10.30;;;1.30;19.30;;;;;;5040374;28;20913;-66
2023/04/05 00:04:22;;;;;;;15.90;9.17;;;1.30;19.30;;;;;;5046963;28;20508;-66
2023/04/05 00:06:51;;;;;;;14.43;8.37;;;1.30;19.30;;;;;;5042190;28;20504;-66
2023/04/05 00:09:20;;;;;;;13.00;8.77;;;1.30;19.30;;;;;;5040310;28;20482;-66
2023/04/05 00:11:48;;;;;;;11.27;8.17;;;1.30;19.30;;;;;;5045970;28;20485;-66
2023/04/05 00:14:15;;;;;;;15.17;10.17;;;1.30;19.40;;;;;;5037065;28;20485;-67
2023/04/05 00:16:42;;;;;;;10.53;8.03;;;1.30;19.30;;;;;;5043242;28;20478;-67
2023/04/05 00:19:11;;;;;;;14.83;8.73;;;1.30;19.20;;;;;;5043378;28;20621;-65
2023/04/05 00:21:39;;;;;;;12.10;8.20;;;1.40;19.20;;;;;;5037885;28;20532;-67
2023/04/05 00:24:06;;;;;;;12.53;8.70;;;1.40;19.20;;;;;;5042207;28;20462;-66
2023/04/05 00:26:36;;;;;;;15.23;8.50;;;1.40;19.20;;;;;;5041368;28;20490;-67
2023/04/05 00:29:02;;;;;;;12.53;9.13;;;1.40;19.20;;;;;;5044190;28;20481;-65
2023/04/05 00:31:30;;;;;;;12.57;8.50;;;1.30;19.40;;;;;;5041668;28;20474;-65
2023/04/05 00:33:56;;;;;;;13.03;8.97;;;1.30;19.40;;;;;;5038834;28;20980;-65
2023/04/05 00:36:23;;;;;;;10.60;7.93;;;1.40;19.20;;;;;;5037448;28;20483;-65
2023/04/05 00:38:50;;;;;;;13.57;8.70;;;1.40;19.20;;;;;;5041502;28;20570;-66
2023/04/05 00:41:17;;;;;;;13.63;9.20;;;1.40;19.20;;;;;;5037859;28;20470;-65
2023/04/05 00:43:47;;;;;;;11.17;8.23;;;1.30;19.40;;;;;;5047067;28;20954;-66
2023/04/05 00:46:15;;;;;;;12.07;7.90;;;1.50;19.40;;;;;;5049395;28;20454;-65
2023/04/05 00:48:42;;;;;;;11.90;8.67;;;1.30;19.30;;;;;;5054928;28;20458;-67
2023/04/05 00:51:10;;;;;;;11.50;8.37;;;1.30;19.50;;;;;;5070945;28;20510;-67
2023/04/05 00:53:37;;;;;;;11.73;8.13;;;1.30;19.30;;;;;;5070244;28;20442;-66
2023/04/05 00:56:04;;;;;;;14.03;8.90;;;1.30;19.30;;;;;;5063859;28;20434;-66
2023/04/05 00:58:32;;;;;;;10.30;7.37;;;1.20;19.30;;;;;;5066795;28;20472;-65
2023/04/05 01:01:05;;;;;;;11.23;8.13;;;1.20;19.30;;;;;;5073171;28;20464;-67
2023/04/05 01:03:35;;;;;;;12.70;8.60;;;1.20;19.30;;;;;;5080846;28;20452;-66
2023/04/05 01:06:16;;;;;;;12.00;7.80;;;1.20;19.50;;;;;;5061706;28;20486;-65
2023/04/05 01:08:51;;;;;;;12.90;8.00;;;1.20;19.50;;;;;;5049710;28;21052;-65
2023/04/05 01:11:18;;;;;;;11.50;7.60;;;1.20;19.70;;;;;;5045610;28;20464;-67
2023/04/05 01:13:46;;;;;;;12.33;8.07;;;1.20;19.70;;;;;;5049311;28;20636;-66
2023/04/05 01:16:14;;;;;;;11.67;8.50;;;1.20;19.60;;;;;;5049541;28;20484;-66
2023/04/05 01:18:45;;;;;;;11.70;7.63;;;1.20;19.60;;;;;;5045834;28;20508;-66
2023/04/05 01:21:41;;;;;;;13.33;8.33;;;1.20;19.50;;;;;;5050920;28;20493;-66
2023/04/05 01:24:19;;;;;;;11.83;8.03;;;1.20;19.40;;;;;;5049671;28;20861;-68
2023/04/05 01:26:58;;;;;;;10.47;7.50;;;1.20;19.30;;;;;;5048352;28;20465;-66
2023/04/05 01:29:55;;;;;;;12.03;7.10;;;1.20;19.10;;;;;;5048781;28;20470;-66
2023/04/05 01:32:37;;;;;;;11.90;7.60;;;1.10;19.30;;;;;;5038893;28;20501;-67
2023/04/05 01:35:10;;;;;;;11.67;6.83;;;1.10;19.40;;;;;;5045912;28;20464;-67
2023/04/05 01:37:38;;;;;;;12.17;7.37;;;1.10;19.30;;;;;;5043792;28;20478;-67
2023/04/05 01:40:07;;;;;;;11.57;8.20;;;1.10;19.20;;;;;;5047441;28;20489;-65
2023/04/05 01:42:34;;;;;;;14.27;8.90;;;1.10;19.40;;;;;;5049187;28;20465;-66
2023/04/05 01:45:02;;;;;;;13.40;9.17;;;1.10;19.40;;;;;;5046325;28;20545;-66
2023/04/05 01:47:29;;;;;;;14.27;8.70;;;1.10;19.50;;;;;;5045873;28;20812;-66
2023/04/05 01:49:55;;;;;;;13.77;8.63;;;1.10;19.50;;;;;;5045569;28;20985;-66
2023/04/05 01:52:22;;;;;;;12.20;7.90;;;1.10;19.40;;;;;;5045180;28;20465;-65
2023/04/05 01:54:49;;;;;;;13.03;8.77;;;1.00;19.50;;;;;;5048327;28;20466;-67
2023/04/05 01:57:16;;;;;;;12.00;8.13;;;1.00;19.50;;;;;;5044961;28;20561;-66
2023/04/05 01:59:43;;;;;;;12.17;8.07;;;1.00;19.60;;;;;;5047671;28;20478;-66
2023/04/05 02:02:11;;;;;;;14.40;9.10;;;1.00;19.70;;;;;;5045382;28;20481;-65
2023/04/05 02:04:37;;;;;;;12.70;9.30;;;0.90;19.80;;;;;;5044897;28;20473;-66
2023/04/05 02:07:04;;;;;;;13.37;9.10;;;0.90;19.90;;;;;;5043521;28;20521;-66
2023/04/05 02:09:31;;;;;;;12.20;8.67;;;0.90;19.90;;;;;;5061005;28;20474;-66
2023/04/05 02:11:58;;;;;;;12.17;7.77;;;0.90;19.90;;;;;;5058283;28;20462;-66
2023/04/05 02:14:24;;;;;;;16.33;9.93;;;0.80;20.00;;;;;;5048650;28;20466;-65
2023/04/05 02:16:54;;;;;;;14.57;9.23;;;0.80;20.00;;;;;;5039956;28;20482;-66
2023/04/05 02:19:24;;;;;;;14.93;10.17;;;0.80;20.10;;;;;;5041617;28;20478;-65
2023/04/05 02:21:52;;;;;;;15.07;9.20;;;0.80;20.10;;;;;;5046520;28;20868;-66
2023/04/05 02:24:19;;;;;;;13.00;9.23;;;0.80;20.00;;;;;;5044225;28;20461;-66
2023/04/05 02:26:46;;;;;;;13.40;8.33;;;0.80;20.00;;;;;;5044752;28;20446;-66
2023/04/05 02:29:12;;;;;;;13.60;8.97;;;0.70;20.10;;;;;;5041710;28;20473;-65
2023/04/05 02:31:39;;;;;;;12.77;8.57;;;0.70;20.20;;;;;;5044583;28;20470;-65
2023/04/05 02:34:08;;;;;;;13.13;9.27;;;0.70;20.20;;;;;;5045450;28;21181;-66
2023/04/05 02:36:36;;;;;;;12.80;7.57;;;0.70;20.20;;;;;;5047268;28;20477;-65
2023/04/05 02:39:03;;;;;;;13.87;9.33;;;0.60;20.10;;;;;;5044511;28;20481;-66
2023/04/05 02:41:30;;;;;;;14.00;8.90;;;0.60;20.20;;;;;;5043451;28;20831;-65
2023/04/05 02:43:57;;;;;;;13.67;8.93;;;0.50;20.30;;;;;;5049816;28;20469;-65
2023/04/05 02:46:24;;;;;;;12.20;8.70;;;0.50;20.20;;;;;;5043359;28;20466;-65
2023/04/05 02:48:51;;;;;;;12.60;8.90;;;0.50;20.20;;;;;;5041821;28;21078;-66
2023/04/05 02:51:18;;;;;;;12.87;8.30;;;0.50;20.40;;;;;;5044366;28;20505;-66
2023/04/05 02:53:46;;;;;;;17.97;9.77;;;0.50;20.50;;;;;;5047665;28;20949;-65
2023/04/05 02:56:13;;;;;;;15.00;9.80;;;0.40;20.40;;;;;;5044955;28;20523;-65
2023/04/05 02:58:40;;;;;;;15.13;8.90;;;0.50;20.50;;;;;;5047143;28;20565;-67
2023/04/05 03:01:07;;;;;;;13.40;9.77;;;0.40;20.60;;;;;;5044415;28;20512;-65
2023/04/05 03:03:34;;;;;;;12.73;8.47;;;0.40;20.60;;;;;;5046055;28;20454;-66
2023/04/05 03:06:08;;;;;;;11.73;7.83;;;0.50;21.00;;;;;;5043789;28;20486;-66
2023/04/05 03:08:37;;;;;;;11.57;9.20;;;0.50;21.30;;;;;;5042687;28;21160;-67
2023/04/05 03:11:06;;;;;;;14.37;8.67;;;0.50;21.50;;;;;;5043254;28;20458;-66
2023/04/05 03:13:32;;;;;;;14.00;8.10;;;0.40;21.40;;;;;;5047770;28;20466;-66
2023/04/05 03:15:59;;;;;;;13.80;8.83;;;0.40;21.50;;;;;;5041700;28;20465;-66
2023/04/05 03:18:28;;;;;;;16.70;8.43;;;0.30;21.30;;;;;;5042756;28;20486;-66
2023/04/05 03:20:56;;;;;;;15.03;9.27;;;0.30;21.30;;;;;;5044367;28;20857;-66
2023/04/05 03:23:25;;;;;;;12.17;8.80;;;0.30;21.30;;;;;;5044627;28;20505;-67
2023/04/05 03:25:55;;;;;;;15.02;9.82;;;0.30;21.20;;;;;;5042257;28;21129;-65
2023/04/05 03:28:23;;;;;;;15.57;8.83;;;0.20;21.70;;;;;;5042935;28;20636;-65
2023/04/05 03:30:50;;;;;;;11.80;8.40;;;0.20;21.40;;;;;;5042114;28;20473;-65
2023/04/05 03:33:17;;;;;;;14.90;9.00;;;0.20;21.40;;;;;;5043474;28;20469;-66
2023/04/05 03:35:44;;;;;;;13.23;8.03;;;0.20;21.40;;;;;;5035790;28;20493;-65
2023/04/05 03:38:10;;;;;;;16.07;8.30;;;0.10;21.40;;;;;;5046877;28;20484;-66
2023/04/05 03:40:37;;;;;;;12.40;8.43;;;0.10;21.50;;;;;;5039390;28;20463;-65
2023/04/05 03:43:04;;;;;;;11.73;8.40;;;0.10;21.70;;;;;;5047598;28;20465;-65
2023/04/05 03:45:33;;;;;;;13.83;8.40;;;0.00;21.90;;;;;;5045269;28;20484;-65
2023/04/05 03:48:00;;;;;;;14.43;9.07;;;0.00;22.20;;;;;;5043003;28;20825;-66
2023/04/05 03:50:27;;;;;;;12.73;8.70;;;-0.10;22.10;;;;;;5043640;28;20458;-65
2023/04/05 03:52:54;;;;;;;14.20;8.33;;;-0.10;22.20;;;;;;5043554;28;20463;-66
2023/04/05 03:55:20;;;;;;;13.47;8.50;;;-0.10;22.30;;;;;;5042760;28;20461;-65
2023/04/05 03:57:47;;;;;;;17.97;8.60;;;-0.10;22.40;;;;;;5037172;28;20477;-66
2023/04/05 04:00:16;;;;;;;12.53;8.30;;;-0.20;22.30;;;;;;5043181;28;20478;-66
2023/04/05 04:02:46;;;;;;;15.00;8.60;;;-0.20;22.40;;;;;;5041185;28;20470;-65
2023/04/05 04:05:14;;;;;;;19.30;10.00;;;-0.20;22.30;;;;;;5039350;28;20466;-66
2023/04/05 04:07:41;;;;;;;13.50;7.80;;;-0.20;22.20;;;;;;5038923;28;20546;-66
2023/04/05 04:10:10;;;;;;;16.10;8.43;;;-0.10;22.30;;;;;;5042776;28;20493;-66
2023/04/05 04:12:37;;;;;;;14.37;8.57;;;-0.20;22.20;;;;;;5038071;28;20475;-66
2023/04/05 04:15:05;;;;;;;11.33;7.87;;;-0.20;22.20;;;;;;5042753;28;20470;-66
2023/04/05 04:17:33;;;;;;;9.30;6.70;;;-0.20;22.10;;;;;;5027702;28;20483;-65
2023/04/05 04:20:02;;;;;;;13.13;8.20;;;-0.10;22.30;;;;;;5045444;28;21008;-66
2023/04/05 04:22:32;;;;;;;14.00;8.93;;;-0.20;22.20;;;;;;5045648;28;20462;-66
2023/04/05 04:25:01;;;;;;;13.90;8.30;;;-0.20;22.30;;;;;;5046111;28;20558;-66
2023/04/05 04:27:29;;;;;;;11.97;8.10;;;-0.20;22.20;;;;;;5044952;28;20961;-66
2023/04/05 04:30:02;;;;;;;11.03;8.17;;;-0.20;22.10;;;;;;5044018;28;20489;-67
2023/04/05 04:32:51;;;;;;;11.30;8.20;;;-0.20;22.10;;;;;;5059347;22;20481;-64
2023/04/05 04:35:23;;;;;;;14.00;9.50;;;-0.20;22.30;;;;;;5057246;28;20475;-65
2023/04/05 04:37:54;;;;;;;16.93;9.27;;;-0.20;22.40;;;;;;5062564;28;20470;-64
2023/04/05 04:40:21;;;;;;;13.47;8.80;;;-0.30;22.70;;;;;;5069062;28;20461;-65
2023/04/05 04:42:49;;;;;;;13.60;7.77;;;-0.30;22.80;;;;;;5062490;28;20497;-64
2023/04/05 04:45:17;;;;;;;12.03;8.90;;;-0.30;22.70;;;;;;5059337;28;20838;-63
2023/04/05 04:47:44;;;;;;;12.63;9.10;;;-0.30;22.70;;;;;;5056728;28;20457;-63
2023/04/05 04:50:11;;;;;;;13.13;9.13;;;-0.30;22.80;;;;;;5054445;28;20461;-64
2023/04/05 04:52:40;;;;;;;15.23;8.57;;;-0.40;22.90;;;;;;5059641;28;20461;-63
2023/04/05 04:55:08;;;;;;;12.23;7.97;;;-0.40;22.90;;;;;;5057122;28;20461;-63
2023/04/05 04:57:34;;;;;;;12.57;8.67;;;-0.40;23.80;;;;;;5060803;28;21291;-64
2023/04/05 05:00:02;;;;;;;15.20;9.00;;;-0.40;23.30;;;;;;5057817;28;20458;-64
2023/04/05 05:02:29;;;;;;;14.07;8.33;;;-0.40;23.40;;;;;;5062287;28;20477;-64
2023/04/05 05:04:56;;;;;;;14.47;8.90;;;-0.40;23.40;;;;;;5056488;28;20485;-63
2023/04/05 05:07:23;;;;;;;15.77;9.20;;;-0.40;23.40;;;;;;5055061;28;20461;-63
2023/04/05 05:09:52;;;;;;;13.90;7.80;;;-0.30;23.30;;;;;;5054071;28;20829;-63
2023/04/05 05:12:21;;;;;;;11.43;8.27;;;-0.20;23.50;;;;;;5057529;28;20513;-63
2023/04/05 05:14:48;;;;;;;14.30;8.83;;;0.00;23.70;;;;;;5061987;28;20473;-63
2023/04/05 05:17:15;;;;;;;14.00;8.20;;;0.10;24.00;;;;;;5058204;28;20465;-64
2023/04/05 05:19:41;;;;;;;13.57;8.97;;;0.30;23.30;;;;;;5053559;28;20469;-63
2023/04/05 05:22:08;;;;;;;15.40;9.83;;;0.60;22.50;;;;;;5085406;28;20915;-64
2023/04/05 05:24:35;;;;;;;12.87;8.67;;;1.10;21.30;;;;;;5075741;28;20463;-65
2023/04/05 05:27:04;;;;;;;12.90;9.73;;;1.70;20.20;;;;;;5054805;28;20466;-65
2023/04/05 05:29:31;;;;;;;12.30;9.13;;;2.50;19.10;;;;;;5062308;28;21222;-64
2023/04/05 05:31:58;;;;;;;11.93;8.70;;;3.20;17.80;;;;;;5052594;28;20478;-64
2023/04/05 05:34:25;;;;;;;14.23;8.87;;;3.70;16.70;;;;;;5057030;28;20502;-64
2023/04/05 05:36:52;;;;;;;12.23;7.60;;;4.10;15.30;;;;;;5057996;28;20493;-64
2023/04/05 05:39:19;;;;;;;11.13;7.63;;;4.40;14.60;;;;;;5059908;28;20473;-65
2023/04/05 05:41:46;;;;;;;14.30;8.63;;;4.60;13.80;;;;;;5054771;28;20484;-64
2023/04/05 05:44:14;;;;;;;11.50;7.63;;;4.80;13.30;;;;;;5059246;28;20840;-64
2023/04/05 05:46:41;;;;;;;12.70;7.27;;;5.10;13.30;;;;;;5065388;28;20465;-65
2023/04/05 05:49:07;;;;;;;12.37;8.50;;;5.20;12.70;;;;;;5067227;28;20469;-64
2023/04/05 05:51:34;;;;;;;13.13;7.60;;;5.40;13.20;;;;;;5056929;28;20488;-63
2023/04/05 05:54:01;;;;;;;9.97;8.00;;;5.60;13.20;;;;;;5063686;28;20468;-65
2023/04/05 05:56:28;;;;;;;9.63;7.20;;;5.70;12.30;;;;;;5059952;28;20479;-64
2023/04/05 05:58:55;;;;;;;12.47;7.60;;;5.70;11.50;;;;;;5057059;28;20508;-64
2023/04/05 06:01:26;;;;;;;12.83;7.87;;;5.90;11.30;;;;;;5062702;28;20477;-64
2023/04/05 06:03:55;;;;;;;11.23;7.37;;;6.10;10.40;;;;;;5065497;28;20547;-65
2023/04/05 06:06:22;;;;;;;10.27;7.87;;;6.70;9.70;;;;;;5061701;28;21043;-65
2023/04/05 06:08:52;;;;;;;10.83;7.80;;;7.10;9.00;;;;;;5058192;28;20462;-65
2023/04/05 06:11:20;;;;;;;10.10;7.53;;;7.40;8.10;;;;;;5060516;28;20507;-65
2023/04/05 06:13:47;;;;;;;12.07;7.77;;;7.70;7.80;;;;;;5057194;28;20501;-65
2023/04/05 06:16:13;;;;;;;12.07;8.27;;;8.00;7.00;;;;;;5058409;28;20462;-65
2023/04/05 06:18:42;;;;;;;11.83;7.80;;;8.80;6.20;;;;;;5055022;28;20877;-65
2023/04/05 06:21:08;;;;;;;9.70;7.30;;;9.80;4.70;;;;;;5057947;28;20578;-65
2023/04/05 06:23:35;;;;;;;10.80;7.63;;;11.00;3.10;;;;;;5060555;28;20465;-64
2023/04/05 06:26:02;;;;;;;16.67;8.33;;;12.30;1.50;;;;;;5059545;28;20461;-65
2023/04/05 06:28:29;;;;;;;13.43;8.20;;;13.60;1.00;;;;;;5060354;28;20479;-65
2023/04/05 06:30:56;;;;;;;12.87;8.33;;;14.90;1.00;;;;;;5062978;28;20977;-65
2023/04/05 06:33:22;;;;;;;11.80;7.50;;;16.10;1.00;;;;;;5055877;28;20457;-65
2023/04/05 06:38:19;;;;;;;9.73;7.43;;;18.50;1.00;;;;;;5000249;22;20515;-65
2023/04/05 06:40:46;;;;;;;9.00;7.60;;;19.70;1.00;;;;;;4994405;28;20461;-65
2023/04/05 06:43:13;;;;;;;9.80;6.87;;;20.70;1.00;;;;;;5005460;28;20468;-65
2023/04/05 06:45:39;;;;;;;10.50;7.00;;;21.90;1.00;;;;;;5010732;28;20483;-66
2023/04/05 06:48:06;;;;;;;14.50;7.73;;;23.00;1.00;;;;;;5007244;28;21208;-66
2023/04/05 06:50:33;;;;;;;7.93;6.33;;;24.00;1.00;;;;;;5006118;28;20471;-66
2023/04/05 06:53:03;;;;;;;9.40;7.30;;;25.00;1.00;;;;;;5041203;22;20503;-63
2023/04/05 06:55:30;;;;;;;10.87;6.73;;;25.90;1.00;;;;;;5039966;28;20475;-63
2023/04/05 06:57:56;;;;;;;9.80;6.80;;;26.80;1.00;;;;;;5052572;28;20844;-63
2023/04/05 07:00:23;;;;;;;9.00;6.77;;;27.50;1.00;;;;;;5042859;28;20477;-63
2023/04/05 07:02:50;;;;;;;10.30;6.00;;;28.20;1.00;;;;;;5043954;28;20469;-63
2023/04/05 07:05:17;;;;;;;9.47;6.53;;;28.70;1.00;;;;;;5040742;28;20469;-64
2023/04/05 07:07:47;;;;;;;8.97;6.97;;;29.30;1.00;;;;;;5045984;28;20486;-64
2023/04/05 07:10:15;;;;;;;8.50;6.20;;;29.70;1.00;;;;;;5038855;28;20602;-64
2023/04/05 07:12:42;;;;;;;8.33;6.80;;;30.30;1.00;;;;;;5041832;28;20501;-64
2023/04/05 07:15:10;;;;;;;8.60;5.80;;;31.00;1.00;;;;;;5041080;28;20468;-64
2023/04/05 07:17:36;;;;;;;10.33;6.80;;;31.60;1.00;;;;;;5042621;28;21328;-64
2023/04/05 07:20:06;;;;;;;8.30;6.40;;;32.20;1.00;;;;;;5042235;28;20858;-64
2023/04/05 07:22:33;;;;;;;7.20;6.30;;;32.70;1.00;;;;;;5049521;28;20620;-64
2023/04/05 07:25:00;;;;;;;9.80;6.37;;;33.20;1.00;;;;;;5044753;28;20458;-64
2023/04/05 07:27:29;;;;;;;7.80;6.47;;;33.70;1.00;;;;;;5044013;28;20486;-64
2023/04/05 07:29:55;;;;;;;11.63;5.80;;;34.00;1.00;;;;;;5049893;28;20986;-65
2023/04/05 07:32:22;;;;;;;6.60;5.30;;;34.40;1.00;;;;;;5043342;28;21416;-65
2023/04/05 07:34:49;;;;;;;8.00;6.03;;;34.80;1.00;;;;;;5036938;28;20474;-64
2023/04/05 07:37:16;;;;;;;7.53;6.33;;;34.50;1.00;;;;;;5041511;28;20482;-65
2023/04/05 07:39:42;;;;;;;11.33;7.90;;;34.50;1.00;;;;;;5044241;28;20490;-65
2023/04/05 07:42:09;;;;;;;7.47;6.20;;;34.90;1.00;;;;;;5044812;28;20470;-65
2023/04/05 07:44:37;;;;;;;7.10;5.70;;;35.40;1.00;;;;;;5052575;28;20462;-65
2023/04/05 07:47:04;;;;;;;7.80;6.33;;;35.80;1.00;;;;;;5043222;28;20489;-65
2023/04/05 07:49:31;;;;;;;9.00;5.90;;;36.10;1.00;;;;;;5037467;28;20459;-65
2023/04/05 07:51:58;;;;;;;6.83;5.87;;;36.50;1.00;;;;;;5050242;28;20466;-65
2023/04/05 07:54:24;;;;;;;8.60;6.63;;;36.30;1.00;;;;;;5039252;28;20470;-65
2023/04/05 07:56:54;;;;;;;9.43;5.60;;;36.00;1.00;;;;;;5038539;28;20491;-65
2023/04/05 07:59:21;;;;;;;7.57;6.57;;;36.10;1.00;;;;;;5044756;28;20510;-65
2023/04/05 08:01:49;;;;;;;11.40;6.30;;;35.90;1.00;;;;;;5041147;28;20493;-65
2023/04/05 08:04:15;;;;;;;7.80;5.93;;;35.80;1.00;;;;;;5043226;28;20463;-65
2023/04/05 08:06:42;;;;;;;11.13;6.57;;;35.80;1.00;;;;;;5050241;28;20486;-65
2023/04/05 08:09:10;;;;;;;7.43;6.00;;;35.90;1.00;;;;;;5053829;28;20457;-65
2023/04/05 08:11:37;;;;;;;7.53;5.93;;;36.70;1.00;;;;;;5040530;28;20466;-66
2023/04/05 08:14:04;;;;;;;6.83;5.27;;;37.40;1.00;;;;;;5044708;28;20458;-65
2023/04/05 08:16:32;;;;;;;7.57;6.10;;;37.80;1.00;;;;;;5044256;28;20537;-65
2023/04/05 08:19:00;;;;;;;7.00;5.37;;;37.20;1.00;;;;;;5044938;28;20509;-65
2023/04/05 08:21:27;;;;;;;9.93;5.40;;;36.10;1.00;;;;;;5049035;28;20497;-65
2023/04/05 08:23:54;;;;;;;7.90;6.13;;;35.30;1.00;;;;;;5044680;28;20537;-65
2023/04/05 08:26:21;;;;;;;7.10;5.23;;;34.80;1.00;;;;;;5043245;28;20504;-65
2023/04/05 08:28:47;;;;;;;8.27;5.87;;;35.20;1.00;;;;;;5042793;28;20462;-65
2023/04/05 08:31:14;;;;;;;9.57;5.90;;;35.70;1.00;;;;;;5046205;28;20477;-65
2023/04/05 08:33:41;;;;;;;8.20;5.97;;;36.30;1.00;;;;;;5043732;28;20968;-65
2023/04/05 08:36:10;;;;;;;7.27;5.40;;;36.80;1.00;;;;;;5043810;28;20474;-65
2023/04/05 08:38:37;;;;;;;7.07;5.40;;;37.30;1.00;;;;;;5039967;28;20570;-65
2023/04/05 08:41:12;;;;;;;7.30;6.30;;;37.30;1.00;;;;;;5039621;28;20473;-65
2023/04/05 08:43:53;;;;;;;7.03;5.40;;;36.70;1.00;;;;;;5049268;28;20470;-65
2023/04/05 08:46:22;;;;;;;7.60;5.60;;;36.50;1.00;;;;;;5042919;28;20488;-64
2023/04/05 08:48:49;;;;;;;6.80;6.10;;;36.70;1.00;;;;;;5045447;28;20867;-65
2023/04/05 08:51:20;;;;;;;10.70;6.40;;;36.70;1.00;;;;;;5048848;28;21386;-65
2023/04/05 08:53:47;;;;;;;7.80;5.27;;;37.20;1.00;;;;;;5044125;28;20458;-65
2023/04/05 08:56:18;;;;;;;8.90;5.70;;;37.80;1.00;;;;;;5044876;28;20493;-65
2023/04/05 08:58:49;;;;;;;6.50;5.00;;;38.40;1.00;;;;;;5042931;28;20485;-65
2023/04/05 09:01:16;;;;;;;7.10;5.47;;;38.60;1.00;;;;;;5040955;28;20477;-65
2023/04/05 09:03:45;;;;;;;7.03;5.60;;;38.30;1.00;;;;;;5044812;28;20462;-65
2023/04/05 09:06:13;;;;;;;6.60;4.97;;;37.40;1.00;;;;;;5046616;28;20996;-65
2023/04/05 09:08:41;;;;;;;9.30;5.13;;;37.60;1.00;;;;;;5045183;28;20470;-65
2023/04/05 09:11:08;;;;;;;7.77;4.77;;;37.80;1.00;;;;;;5048603;28;20474;-65
2023/04/05 09:13:35;;;;;;;7.47;5.40;;;37.80;1.00;;;;;;5034092;28;20478;-65
2023/04/05 09:16:02;;;;;;;7.57;5.23;;;37.00;1.00;;;;;;5039554;28;20808;-65
2023/04/05 09:18:30;;;;;;;6.10;4.67;;;36.10;1.00;;;;;;5047950;28;20470;-65
2023/04/05 09:21:03;;;;;;;6.80;4.50;;;36.10;1.00;;;;;;5049069;28;20458;-65
2023/04/05 09:23:30;;;;;;;8.37;4.50;;;37.10;1.00;;;;;;5046332;28;20516;-65
2023/04/05 09:25:58;;;;;;;6.47;5.00;;;37.60;1.00;;;;;;5050483;28;20930;-65
2023/04/05 09:28:41;;;;;;;6.07;5.10;;;36.00;1.00;;;;;;5048460;28;20468;-65
2023/04/05 09:31:08;;;;;;;8.47;5.50;;;33.50;1.00;;;;;;5045209;28;20535;-65
2023/04/05 09:33:36;;;;;;;7.03;4.70;;;31.30;1.00;;;;;;5048166;28;20477;-65
2023/04/05 09:36:03;;;;;;;6.57;4.53;;;31.70;1.00;;;;;;5048816;28;20462;-65
2023/04/05 09:38:43;;;;;;;6.17;4.80;;;33.30;1.00;;;;;;5049812;28;21157;-65
2023/04/05 09:41:11;;;;;;;7.17;5.10;;;32.90;1.00;;;;;;5049492;28;20486;-65
2023/04/05 09:43:39;;;;;;;7.60;4.70;;;32.00;1.00;;;;;;5049471;28;20469;-65
2023/04/05 09:46:07;;;;;;;8.23;4.90;;;29.90;1.00;;;;;;5047467;28;20497;-64
2023/04/05 09:48:47;;;;;;;12.93;5.57;;;27.70;1.00;;;;;;5050660;28;20468;-64
2023/04/05 09:51:14;;;;;;;7.03;4.67;;;26.30;1.00;;;;;;5046356;28;20462;-64
2023/04/05 09:53:57;;;;;;;7.93;5.60;;;26.70;1.00;;;;;;5050824;28;20473;-64
2023/04/05 09:56:26;;;;;;;8.10;5.87;;;25.10;1.00;;;;;;5045675;28;20539;-64
2023/04/05 09:58:53;;;;;;;10.80;5.67;;;24.00;1.00;;;;;;5041883;28;20466;-64
2023/04/05 10:01:20;;;;;;;8.30;5.37;;;23.70;1.00;;;;;;5034389;28;20477;-64
2023/04/05 10:03:48;;;;;;;6.83;5.10;;;23.40;1.00;;;;;;5046787;28;20816;-64
2023/04/05 10:06:16;;;;;;;8.27;5.03;;;22.20;1.00;;;;;;5049208;28;20988;-64
2023/04/05 10:08:42;;;;;;;9.83;6.00;;;20.70;1.00;;;;;;5045855;28;20466;-64
2023/04/05 10:11:12;;;;;;;9.90;5.33;;;19.70;1.00;;;;;;5042230;28;20497;-64
2023/04/05 10:13:42;;;;;;;7.23;5.40;;;18.90;1.00;;;;;;5048012;28;20713;-65
2023/04/05 10:16:13;;;;;;;7.73;5.33;;;18.60;1.00;;;;;;5043559;28;20485;-64
2023/04/05 10:18:45;;;;;;;8.70;5.27;;;21.40;1.00;;;;;;5046752;28;20858;-65
2023/04/05 10:21:15;;;;;;;7.30;5.10;;;25.00;1.00;;;;;;5042224;28;20474;-65
2023/04/05 10:23:44;;;;;;;7.57;4.77;;;27.20;1.00;;;;;;5044631;28;20466;-65
2023/04/05 10:26:20;;;;;;;6.67;4.60;;;28.60;1.00;;;;;;5043941;28;20568;-66
2023/04/05 10:28:57;;;;;;;9.20;6.27;;;30.10;1.00;;;;;;5043986;28;20489;-66
2023/04/05 10:31:28;;;;;;;7.63;4.70;;;30.80;1.00;;;;;;5034434;28;20493;-67
2023/04/05 10:34:04;;;;;;;7.73;5.50;;;31.80;1.00;;;;;;5038659;28;20470;-67
2023/04/05 10:36:39;;;;;;;8.53;4.80;;;33.10;1.00;;;;;;5035008;28;20478;-68
2023/04/05 10:39:12;;;;;;;6.90;4.27;;;34.00;1.00;;;;;;5036269;28;20468;-68
2023/04/05 10:41:42;;;;;;;6.00;4.20;;;34.10;1.00;;;;;;5018876;28;21005;-68
2023/04/05 10:44:11;;;;;;;9.30;5.27;;;32.60;1.00;;;;;;5041042;28;20470;-68
2023/04/05 10:46:40;;;;;;;8.03;5.23;;;32.40;1.00;;;;;;5045809;28;20482;-68
2023/04/05 10:49:16;;;;;;;7.40;5.67;;;32.40;1.00;;;;;;5041711;28;20467;-67
2023/04/05 10:51:44;;;;;;;7.00;4.77;;;31.70;1.00;;;;;;5036864;28;20472;-67
2023/04/05 10:54:11;;;;;;;7.13;5.07;;;30.50;1.00;;;;;;5035120;28;20474;-67
2023/04/05 10:56:39;;;;;;;7.00;5.13;;;30.60;1.00;;;;;;5032284;28;20490;-67
2023/04/05 10:59:08;;;;;;;6.73;5.37;;;31.00;1.00;;;;;;5037763;28;20470;-67
2023/04/05 11:01:37;;;;;;;7.10;5.20;;;30.80;1.00;;;;;;5030137;28;20486;-67
2023/04/05 11:04:11;;;;;;;7.70;5.50;;;30.80;1.00;;;;;;5047969;28;20589;-67
2023/04/05 11:06:38;;;;;;;7.27;5.23;;;31.40;1.00;;;;;;5036090;28;21092;-68
2023/04/05 11:09:11;;;;;;;6.77;4.20;;;31.30;1.00;;;;;;5025206;28;20472;-67
2023/04/05 11:11:39;;;;;;;7.27;4.67;;;31.40;1.00;;;;;;5034260;28;20547;-67
2023/04/05 11:14:19;;;;;;;7.60;4.93;;;31.30;1.00;;;;;;5043298;28;20470;-67
2023/04/05 11:16:52;;;;;;;7.20;4.60;;;30.90;1.00;;;;;;5030287;28;20511;-67
2023/04/05 11:19:19;;;;;;;7.33;5.27;;;29.40;1.00;;;;;;5040057;28;20527;-67
2023/04/05 11:21:46;;;;;;;8.50;5.53;;;27.10;1.00;;;;;;5035291;28;20465;-67
2023/04/05 11:24:15;;;;;;;8.43;4.90;;;24.80;1.00;;;;;;5039426;28;20471;-67
2023/04/05 11:26:56;;;;;;;12.00;5.27;;;23.10;1.00;;;;;;5040025;28;21368;-67
2023/04/05 11:29:49;;;;;;;7.80;6.03;;;21.70;1.00;;;;;;5037762;28;20462;-66
2023/04/05 11:32:18;;;;;;;7.00;5.27;;;20.60;1.00;;;;;;5039484;28;20589;-66
2023/04/05 11:34:45;;;;;;;9.20;5.63;;;19.90;1.00;;;;;;5026603;28;20497;-66
2023/04/05 11:37:12;;;;;;;9.00;5.90;;;19.20;1.00;;;;;;5032788;28;20573;-65
2023/04/05 11:39:40;;;;;;;8.80;6.43;;;18.60;1.00;;;;;;5036047;28;20486;-66
2023/04/05 11:42:11;;;;;;;7.97;6.30;;;18.00;1.00;;;;;;5023656;28;20469;-66
2023/04/05 11:44:43;;;;;;;9.33;6.90;;;17.70;1.00;;;;;;5043729;28;20520;-66
2023/04/05 11:47:10;;;;;;;9.20;6.43;;;17.40;1.00;;;;;;5036873;28;21021;-66
2023/04/05 11:49:40;;;;;;;8.80;6.27;;;17.20;1.00;;;;;;5036702;28;20458;-66
2023/04/05 11:52:12;;;;;;;9.10;6.10;;;16.90;1.00;;;;;;5038227;28;20498;-66
2023/04/05 11:54:44;;;;;;;10.37;7.27;;;16.50;1.00;;;;;;5039937;28;21024;-66
2023/04/05 11:57:13;;;;;;;10.53;6.37;;;16.20;1.00;;;;;;5043201;28;20493;-66
2023/04/05 11:59:39;;;;;;;7.70;6.20;;;15.90;1.00;;;;;;5039308;28;20489;-66
2023/04/05 12:02:08;;;;;;;8.80;6.10;;;15.60;1.00;;;;;;5038219;28;20470;-66
2023/04/05 12:04:35;;;;;;;7.53;5.30;;;15.30;1.00;;;;;;5038590;28;20902;-66
2023/04/05 12:07:16;;;;;;;10.00;6.20;;;15.10;1.00;;;;;;5043704;28;20482;-62
2023/04/05 12:09:59;;;;;;;9.70;6.40;;;14.90;1.00;;;;;;5039926;28;20470;-63
2023/04/05 12:12:25;;;;;;;11.00;6.83;;;14.50;1.00;;;;;;5030795;28;20462;-62
2023/04/05 12:14:57;;;;;;;10.13;6.33;;;14.20;1.00;;;;;;5033387;28;20519;-62
2023/04/05 12:17:38;;;;;;;8.83;6.30;;;14.00;1.00;;;;;;5046517;28;20481;-62
2023/04/05 12:20:06;;;;;;;12.80;6.63;;;13.90;1.00;;;;;;5048293;28;20485;-62
2023/04/05 12:22:34;;;;;;;8.90;6.20;;;13.80;1.00;;;;;;5043414;28;20474;-62
2023/04/05 12:25:02;;;;;;;9.57;6.00;;;13.80;1.00;;;;;;5047534;28;20484;-63
2023/04/05 12:27:29;;;;;;;8.57;6.00;;;13.70;1.00;;;;;;5043194;28;20490;-63
2023/04/05 12:30:06;;;;;;;8.77;6.10;;;13.70;1.00;;;;;;5047536;28;20454;-63
2023/04/05 12:32:36;;;;;;;8.13;5.87;;;13.70;1.00;;;;;;5041960;28;20504;-62
2023/04/05 12:35:06;;;;;;;8.17;6.27;;;13.70;1.00;;;;;;5054653;28;20465;-62
2023/04/05 12:37:35;;;;;;;9.63;6.53;;;13.70;1.00;;;;;;5049583;28;20482;-63
2023/04/05 12:40:04;;;;;;;8.13;5.80;;;13.70;1.00;;;;;;5050013;28;20490;-62
2023/04/05 12:42:34;;;;;;;8.77;6.53;;;13.60;1.00;;;;;;5041661;28;20469;-62
2023/04/05 12:45:06;;;;;;;8.80;6.43;;;13.60;1.00;;;;;;5038176;28;20936;-62
2023/04/05 12:47:34;;;;;;;7.70;5.93;;;13.60;1.00;;;;;;5046779;28;20477;-63
2023/04/05 12:50:12;;;;;;;11.93;6.67;;;13.40;1.00;;;;;;5043904;28;20882;-62
2023/04/05 12:52:52;;;;;;;8.93;6.13;;;13.30;1.00;;;;;;5042850;28;20469;-62
2023/04/05 12:55:20;;;;;;;8.10;5.70;;;13.00;1.00;;;;;;5050835;22;20857;-65
2023/04/05 12:57:49;;;;;;;9.27;6.40;;;12.70;1.00;;;;;;5016034;28;20491;-65
2023/04/05 13:00:17;;;;;;;9.00;5.73;;;12.60;1.00;;;;;;5010704;28;20484;-66
2023/04/05 13:02:43;;;;;;;7.90;5.67;;;12.40;1.00;;;;;;5010984;28;20963;-64